createdAt,value
2018-02-18T00:00:50.595Z,33.00
2018-02-18T00:03:18.486Z,33.57
2018-02-18T00:05:46.341Z,29.17
2018-02-18T00:08:14.243Z,23.33
2018-02-18T00:10:41.742Z,27.60
2018-02-18T00:13:09.200Z,28.50
2018-02-18T00:15:36.673Z,24.80
2018-02-18T00:18:04.168Z,27.63
2018-02-18T00:20:32.053Z,29.30
2018-02-18T00:23:00.142Z,35.63
2018-02-18T00:25:27.645Z,25.40
2018-02-18T00:27:55.125Z,27.53
2018-02-18T00:30:23.015Z,27.10
2018-02-18T00:32:50.869Z,34.33
2018-02-18T00:35:18.733Z,27.93
2018-02-18T00:37:46.220Z,25.67
2018-02-18T00:40:14.120Z,24.80
2018-02-18T00:42:41.593Z,27.00
2018-02-18T00:45:09.737Z,25.97
2018-02-18T00:47:37.219Z,24.47
2018-02-18T00:50:04.698Z,24.40
2018-02-18T00:52:32.186Z,25.87
2018-02-18T00:54:59.655Z,27.60
2018-02-18T00:57:27.130Z,35.80
2018-02-18T00:59:55.094Z,25.93
2018-02-18T01:02:22.585Z,25.97
2018-02-18T01:04:50.135Z,26.07
2018-02-18T01:07:18.106Z,24.07
2018-02-18T01:09:45.998Z,21.77
2018-02-18T01:12:13.531Z,27.07
2018-02-18T01:14:41.021Z,22.73
2018-02-18T01:17:08.542Z,27.07
2018-02-18T01:19:36.107Z,23.87
2018-02-18T01:22:04.479Z,28.70
2018-02-18T01:24:32.041Z,27.00
2018-02-18T01:26:59.710Z,24.90
2018-02-18T01:29:27.177Z,29.30
2018-02-18T01:31:54.744Z,28.23
2018-02-18T01:34:22.308Z,28.23
2018-02-18T01:36:49.790Z,32.47
2018-02-18T01:39:17.646Z,24.93
2018-02-18T01:41:45.116Z,36.10
2018-02-18T01:44:12.981Z,33.07
2018-02-18T01:46:40.424Z,29.00
2018-02-18T01:49:07.903Z,34.20
2018-02-18T01:51:35.354Z,27.97
2018-02-18T01:54:02.802Z,30.80
2018-02-18T01:56:30.365Z,29.93
2018-02-18T01:58:57.838Z,31.53
2018-02-18T02:01:25.290Z,24.57
2018-02-18T02:03:52.864Z,29.73
2018-02-18T02:06:20.344Z,24.97
2018-02-18T02:08:47.938Z,31.30
2018-02-18T02:11:15.394Z,35.37
2018-02-18T02:13:42.853Z,24.60
2018-02-18T02:16:10.327Z,30.17
2018-02-18T02:18:37.783Z,27.10
2018-02-18T02:21:05.289Z,33.73
2018-02-18T02:23:32.866Z,27.30
2018-02-18T02:26:00.417Z,29.83
2018-02-18T02:28:27.946Z,28.70
2018-02-18T02:30:55.447Z,28.73
2018-02-18T02:33:22.904Z,26.90
2018-02-18T02:35:50.481Z,31.50
2018-02-18T02:38:17.941Z,28.30
2018-02-18T02:40:45.501Z,29.37
2018-02-18T02:43:12.946Z,27.47
2018-02-18T02:45:40.413Z,34.00
2018-02-18T02:48:07.985Z,27.13
2018-02-18T02:50:36.057Z,30.57
2018-02-18T02:53:03.623Z,26.50
2018-02-18T02:55:31.111Z,34.50
2018-02-18T02:57:58.668Z,35.40
2018-02-18T03:00:26.147Z,36.50
2018-02-18T03:02:54.093Z,39.63
2018-02-18T03:05:21.553Z,32.67
2018-02-18T03:07:49.010Z,24.50
2018-02-18T03:10:16.466Z,25.60
2018-02-18T03:12:43.949Z,30.00
2018-02-18T03:15:11.487Z,33.77
2018-02-18T03:17:38.957Z,32.40
2018-02-18T03:20:06.560Z,38.13
2018-02-18T03:22:34.447Z,27.90
2018-02-18T03:25:01.975Z,26.93
2018-02-18T03:27:29.464Z,26.23
2018-02-18T03:29:57.378Z,35.47
2018-02-18T03:32:24.825Z,27.67
2018-02-18T03:34:53.146Z,26.23
2018-02-18T03:37:20.936Z,28.43
2018-02-18T03:39:48.781Z,24.70
2018-02-18T03:42:16.360Z,25.67
2018-02-18T03:44:43.897Z,33.97
2018-02-18T03:47:11.472Z,25.60
2018-02-18T03:49:38.949Z,24.87
2018-02-18T03:52:06.413Z,30.20
2018-02-18T03:54:33.879Z,28.60
2018-02-18T03:57:01.837Z,63.27
2018-02-18T03:59:29.917Z,40.93
2018-02-18T04:01:57.452Z,27.27
2018-02-18T04:04:25.027Z,46.93
2018-02-18T04:06:52.523Z,48.67
2018-02-18T04:09:19.979Z,38.80
2018-02-18T04:11:47.858Z,37.97
2018-02-18T04:14:15.711Z,37.40
2018-02-18T04:16:43.178Z,26.40
2018-02-18T04:19:11.044Z,29.07
2018-02-18T04:21:38.518Z,35.33
2018-02-18T04:24:06.399Z,31.33
2018-02-18T04:26:34.719Z,27.50
2018-02-18T04:29:02.198Z,33.40
2018-02-18T04:31:29.691Z,29.43
2018-02-18T04:33:57.164Z,30.93
2018-02-18T04:36:25.118Z,28.50
2018-02-18T04:38:52.588Z,34.43
2018-02-18T04:41:20.054Z,25.83
2018-02-18T04:43:47.921Z,29.70
2018-02-18T04:46:15.788Z,26.37
2018-02-18T04:48:43.283Z,35.90
2018-02-18T04:51:10.747Z,28.97
2018-02-18T04:53:38.234Z,28.43
2018-02-18T04:56:05.704Z,23.87
2018-02-18T04:58:34.865Z,27.17
2018-02-18T05:01:02.337Z,28.77
2018-02-18T05:03:29.814Z,29.43
2018-02-18T05:05:57.287Z,25.70
2018-02-18T05:08:24.899Z,24.20
2018-02-18T05:10:52.857Z,29.20
2018-02-18T05:13:20.514Z,29.83
2018-02-18T05:15:47.991Z,25.37
2018-02-18T05:18:15.851Z,25.90
2018-02-18T05:20:43.412Z,41.20
2018-02-18T05:23:10.960Z,26.40
2018-02-18T05:25:38.526Z,32.33
2018-02-18T05:28:06.014Z,25.17
2018-02-18T05:30:33.497Z,31.47
2018-02-18T05:33:01.372Z,34.27
2018-02-18T05:35:28.871Z,27.40
2018-02-18T05:37:56.462Z,30.40
2018-02-18T05:40:23.914Z,25.03
2018-02-18T05:42:51.388Z,35.00
2018-02-18T05:45:19.283Z,29.10
2018-02-18T05:47:47.262Z,25.23
2018-02-18T05:50:15.120Z,32.90
2018-02-18T05:52:42.990Z,27.87
2018-02-18T05:55:10.849Z,27.37
2018-02-18T05:57:38.329Z,32.23
2018-02-18T06:00:06.203Z,28.03
2018-02-18T06:02:33.832Z,32.37
2018-02-18T06:05:01.301Z,26.30
2018-02-18T06:07:28.774Z,34.20
2018-02-18T06:09:56.328Z,26.27
2018-02-18T06:12:23.826Z,30.50
2018-02-18T06:14:51.280Z,33.80
2018-02-18T06:17:19.409Z,29.27
2018-02-18T06:19:46.893Z,30.37
2018-02-18T06:22:14.441Z,29.43
2018-02-18T06:24:42.007Z,23.70
2018-02-18T06:27:09.502Z,26.47
2018-02-18T06:29:37.457Z,28.83
2018-02-18T06:32:05.003Z,29.80
2018-02-18T06:34:32.582Z,27.60
2018-02-18T06:37:00.145Z,32.93
2018-02-18T06:39:27.634Z,35.23
2018-02-18T06:41:55.165Z,28.90
2018-02-18T06:44:22.671Z,27.30
2018-02-18T06:46:50.135Z,30.03
2018-02-18T06:49:17.587Z,25.80
2018-02-18T06:51:45.086Z,32.77
2018-02-18T06:54:12.576Z,33.57
2018-02-18T06:56:40.052Z,32.30
2018-02-18T06:59:07.516Z,26.43
2018-02-18T07:01:35.583Z,34.20
2018-02-18T07:04:03.042Z,32.70
2018-02-18T07:06:30.508Z,31.50
2018-02-18T07:08:58.373Z,27.70
2018-02-18T07:11:25.833Z,29.77
2018-02-18T07:13:53.394Z,27.80
2018-02-18T07:16:21.679Z,31.37
2018-02-18T07:18:49.160Z,26.63
2018-02-18T07:21:17.100Z,38.80
2018-02-18T07:23:44.593Z,29.47
2018-02-18T07:26:12.483Z,33.83
2018-02-18T07:28:40.018Z,32.80
2018-02-18T07:31:07.564Z,30.70
2018-02-18T07:33:35.049Z,36.67
2018-02-18T07:36:02.516Z,31.10
2018-02-18T07:38:30.461Z,29.20
2018-02-18T07:40:57.968Z,29.53
2018-02-18T07:43:25.921Z,45.20
2018-02-18T07:45:53.902Z,36.73
2018-02-18T07:48:21.769Z,34.13
2018-02-18T07:50:49.641Z,35.07
2018-02-18T07:53:17.524Z,34.30
2018-02-18T07:55:45.472Z,37.83
2018-02-18T07:58:12.940Z,36.73
2018-02-18T08:00:40.854Z,32.73
2018-02-18T08:03:08.273Z,30.67
2018-02-18T08:05:35.730Z,35.60
2018-02-18T08:08:03.689Z,35.13
2018-02-18T08:10:31.593Z,28.10
2018-02-18T08:12:59.436Z,30.00
2018-02-18T08:15:26.996Z,38.90
2018-02-18T08:17:54.568Z,31.60
2018-02-18T08:20:22.021Z,34.27
2018-02-18T08:22:49.483Z,32.40
2018-02-18T08:25:17.041Z,32.47
2018-02-18T08:27:44.493Z,41.00
2018-02-18T08:30:12.123Z,38.83
2018-02-18T08:32:39.574Z,31.50
2018-02-18T08:35:07.049Z,34.03
2018-02-18T08:37:34.926Z,42.20
2018-02-18T08:40:02.385Z,33.57
2018-02-18T08:42:31.159Z,44.93
2018-02-18T08:44:58.681Z,38.20
2018-02-18T08:47:26.141Z,44.50
2018-02-18T08:49:53.702Z,40.20
2018-02-18T08:52:21.161Z,45.60
2018-02-18T08:54:48.688Z,36.90
2018-02-18T08:57:16.235Z,41.93
2018-02-18T08:59:44.168Z,43.83
2018-02-18T09:02:11.733Z,49.70
2018-02-18T09:04:39.600Z,40.93
2018-02-18T09:07:07.177Z,44.53
2018-02-18T09:09:34.762Z,43.77
2018-02-18T09:12:02.619Z,38.97
2018-02-18T09:14:30.090Z,45.60
2018-02-18T09:16:57.963Z,43.00
2018-02-18T09:19:25.808Z,48.80
2018-02-18T09:21:53.411Z,49.83
2018-02-18T09:24:21.334Z,42.03
2018-02-18T09:26:48.913Z,47.27
2018-02-18T09:29:16.405Z,45.43
2018-02-18T09:31:44.283Z,40.03
2018-02-18T09:34:12.424Z,48.93
2018-02-18T09:36:39.997Z,45.90
2018-02-18T09:39:07.881Z,54.47
2018-02-18T09:41:35.857Z,48.87
2018-02-18T09:44:03.803Z,49.30
2018-02-18T09:46:31.275Z,46.67
2018-02-18T09:48:58.718Z,48.90
2018-02-18T09:51:26.183Z,46.43
2018-02-18T09:53:53.739Z,45.03
2018-02-18T09:56:21.215Z,47.77
2018-02-18T09:58:48.709Z,49.83
2018-02-18T10:01:16.562Z,50.93
2018-02-18T10:03:44.032Z,43.03
2018-02-18T10:06:11.897Z,42.40
2018-02-18T10:08:39.753Z,52.40
2018-02-18T10:11:07.224Z,40.70
2018-02-18T10:13:35.085Z,40.67
2018-02-18T10:16:02.569Z,47.07
2018-02-18T10:18:30.422Z,53.43
2018-02-18T10:20:59.518Z,50.30
2018-02-18T10:23:26.975Z,41.10
2018-02-18T10:25:54.432Z,51.83
2018-02-18T10:28:21.897Z,51.30
2018-02-18T10:30:49.470Z,50.13
2018-02-18T10:33:18.786Z,45.97
2018-02-18T10:35:46.275Z,58.47
2018-02-18T10:38:13.763Z,53.87
2018-02-18T10:40:41.323Z,47.53
2018-02-18T10:43:09.247Z,46.43
2018-02-18T10:45:37.116Z,42.57
2018-02-18T10:48:04.617Z,54.53
2018-02-18T10:50:32.120Z,44.50
2018-02-18T10:52:59.583Z,55.50
2018-02-18T10:55:27.063Z,49.00
2018-02-18T10:57:54.535Z,48.73
2018-02-18T11:00:22.406Z,48.23
2018-02-18T11:02:50.366Z,44.67
2018-02-18T11:05:17.857Z,52.83
2018-02-18T11:07:45.333Z,49.97
2018-02-18T11:10:13.613Z,47.60
2018-02-18T11:12:41.156Z,49.40
2018-02-18T11:15:09.029Z,49.37
2018-02-18T11:17:36.940Z,47.33
2018-02-18T11:20:04.402Z,45.70
2018-02-18T11:22:31.868Z,46.90
2018-02-18T11:24:59.361Z,50.33
2018-02-18T11:27:26.863Z,49.53
2018-02-18T11:29:54.341Z,51.97
2018-02-18T11:32:21.821Z,48.67
2018-02-18T11:34:49.285Z,42.93
2018-02-18T11:37:16.740Z,39.87
2018-02-18T11:39:44.330Z,45.37
2018-02-18T11:42:11.820Z,47.97
2018-02-18T11:44:39.694Z,43.90
2018-02-18T11:47:07.563Z,48.40
2018-02-18T11:49:35.443Z,52.43
2018-02-18T11:52:03.395Z,51.60
2018-02-18T11:54:30.869Z,49.87
2018-02-18T11:56:58.731Z,52.50
2018-02-18T11:59:26.628Z,46.77
2018-02-18T12:01:54.814Z,43.60
2018-02-18T12:04:22.303Z,43.60
2018-02-18T12:06:49.796Z,46.57
2018-02-18T12:09:17.261Z,44.67
2018-02-18T12:11:44.863Z,42.47
2018-02-18T12:14:12.338Z,42.50
2018-02-18T12:16:39.829Z,41.07
2018-02-18T12:19:07.402Z,47.47
2018-02-18T12:21:34.877Z,38.13
2018-02-18T12:24:02.355Z,46.47
2018-02-18T12:26:30.240Z,37.97
2018-02-18T12:28:57.745Z,44.13
2018-02-18T12:31:25.326Z,38.00
2018-02-18T12:33:52.784Z,40.63
2018-02-18T12:36:20.271Z,44.00
2018-02-18T12:38:47.750Z,43.40
2018-02-18T12:41:15.619Z,38.40
2018-02-18T12:43:43.878Z,42.57
2018-02-18T12:46:11.748Z,45.03
2018-02-18T12:48:39.623Z,37.53
2018-02-18T12:51:07.098Z,39.97
2018-02-18T12:53:35.093Z,42.33
2018-02-18T12:56:02.593Z,41.57
2018-02-18T12:58:30.102Z,35.80
2018-02-18T13:00:58.059Z,35.93
2018-02-18T13:03:25.933Z,34.67
2018-02-18T13:05:53.830Z,28.30
2018-02-18T13:08:21.324Z,31.07
2018-02-18T13:10:48.800Z,26.73
2018-02-18T13:13:16.288Z,36.07
2018-02-18T13:15:43.772Z,30.00
2018-02-18T13:18:11.304Z,29.10
2018-02-18T13:20:38.887Z,27.27
2018-02-18T13:23:06.762Z,35.93
2018-02-18T13:25:34.647Z,29.10
2018-02-18T13:28:02.195Z,30.33
2018-02-18T13:30:30.064Z,35.80
2018-02-18T13:32:57.932Z,30.90
2018-02-18T13:35:25.831Z,30.90
2018-02-18T13:37:54.065Z,32.30
2018-02-18T13:40:21.554Z,28.20
2018-02-18T13:42:49.425Z,28.23
2018-02-18T13:45:17.301Z,29.97
2018-02-18T13:47:45.192Z,29.93
2018-02-18T13:50:12.689Z,28.00
2018-02-18T13:52:40.158Z,29.77
2018-02-18T13:55:07.632Z,30.73
2018-02-18T13:57:35.186Z,31.90
2018-02-18T14:00:02.669Z,37.90
2018-02-18T14:02:30.225Z,29.60
2018-02-18T14:04:57.725Z,30.97
2018-02-18T14:07:25.247Z,37.60
2018-02-18T14:09:52.807Z,33.37
2018-02-18T14:12:20.402Z,31.27
2018-02-18T14:14:48.348Z,32.70
2018-02-18T14:17:15.914Z,28.90
2018-02-18T14:19:43.546Z,36.63
2018-02-18T14:22:11.377Z,33.27
2018-02-18T14:24:38.859Z,26.97
2018-02-18T14:27:06.384Z,33.17
2018-02-18T14:29:34.264Z,31.70
2018-02-18T14:32:02.146Z,32.07
2018-02-18T14:34:30.095Z,32.83
2018-02-18T14:36:57.644Z,29.77
2018-02-18T14:39:25.278Z,31.13
2018-02-18T14:42:04.908Z,33.90
2018-02-18T14:44:44.441Z,35.77
2018-02-18T14:47:23.853Z,30.13
2018-02-18T14:50:03.793Z,32.00
2018-02-18T14:52:43.868Z,35.53
2018-02-18T14:55:23.308Z,34.37
2018-02-18T14:57:51.426Z,32.37
2018-02-18T15:00:18.940Z,36.40
2018-02-18T15:02:46.489Z,28.00
2018-02-18T15:05:14.352Z,34.87
2018-02-18T15:07:42.287Z,30.77
2018-02-18T15:10:09.748Z,34.70
2018-02-18T15:12:37.239Z,29.93
2018-02-18T15:15:04.840Z,35.47
2018-02-18T15:17:33.865Z,29.23
2018-02-18T15:20:01.355Z,31.47
2018-02-18T15:22:28.828Z,31.13
2018-02-18T15:24:56.287Z,28.03
2018-02-18T15:27:23.757Z,32.03
2018-02-18T15:29:51.713Z,34.43
2018-02-18T15:32:19.188Z,31.00
2018-02-18T15:34:46.669Z,32.90
2018-02-18T15:37:14.564Z,34.97
2018-02-18T15:39:42.034Z,35.00
2018-02-18T15:42:09.550Z,34.83
2018-02-18T15:44:37.425Z,31.90
2018-02-18T15:47:05.289Z,39.10
2018-02-18T15:49:33.799Z,34.17
2018-02-18T15:52:01.839Z,34.50
2018-02-18T15:54:29.325Z,35.20
2018-02-18T15:56:57.287Z,35.43
2018-02-18T15:59:24.768Z,33.17
2018-02-18T16:01:52.635Z,36.83
2018-02-18T16:04:20.496Z,33.40
2018-02-18T16:06:48.459Z,31.67
2018-02-18T16:09:15.993Z,33.83
2018-02-18T16:11:43.566Z,32.30
2018-02-18T16:14:11.021Z,34.73
2018-02-18T16:16:38.505Z,28.23
2018-02-18T16:19:05.981Z,37.30
2018-02-18T16:21:33.431Z,30.93
2018-02-18T16:24:00.925Z,33.87
2018-02-18T16:26:28.392Z,31.43
2018-02-18T16:28:55.870Z,36.40
2018-02-18T16:31:23.335Z,33.27
2018-02-18T16:33:50.934Z,37.90
2018-02-18T16:36:18.421Z,32.60
2018-02-18T16:38:47.282Z,36.40
2018-02-18T16:41:14.743Z,32.67
2018-02-18T16:43:42.222Z,35.57
2018-02-18T16:46:09.701Z,31.33
2018-02-18T16:48:37.582Z,31.60
2018-02-18T16:51:05.521Z,38.90
2018-02-18T16:53:33.014Z,52.97
2018-02-18T16:56:00.502Z,35.47
2018-02-18T16:58:27.984Z,33.93
2018-02-18T17:00:55.472Z,35.70
2018-02-18T17:03:23.014Z,38.20
2018-02-18T17:05:51.040Z,36.50
2018-02-18T17:08:18.988Z,38.40
2018-02-18T17:10:46.461Z,43.70
2018-02-18T17:13:13.926Z,39.97
2018-02-18T17:15:42.552Z,44.33
2018-02-18T17:18:10.090Z,40.37
2018-02-18T17:20:38.055Z,37.97
2018-02-18T17:23:05.961Z,50.70
2018-02-18T17:25:33.457Z,47.53
2018-02-18T17:28:00.943Z,37.33
2018-02-18T17:30:28.953Z,43.00
2018-02-18T17:32:57.278Z,42.17
2018-02-18T17:35:24.778Z,41.47
2018-02-18T17:37:52.675Z,42.37
2018-02-18T17:40:20.147Z,39.83
2018-02-18T17:42:47.630Z,37.40
2018-02-18T17:45:15.102Z,45.70
2018-02-18T17:47:42.616Z,46.70
2018-02-18T17:50:10.146Z,40.70
2018-02-18T17:52:37.617Z,38.20
2018-02-18T17:55:05.506Z,39.60
2018-02-18T17:57:33.037Z,41.07
2018-02-18T18:00:00.556Z,47.90
2018-02-18T18:02:28.058Z,45.07
2018-02-18T18:04:56.162Z,39.67
2018-02-18T18:07:24.116Z,44.37
2018-02-18T18:09:52.053Z,43.07
2018-02-18T18:12:19.577Z,41.90
2018-02-18T18:14:47.445Z,42.03
2018-02-18T18:17:14.901Z,46.30
2018-02-18T18:19:42.870Z,49.20
2018-02-18T18:22:10.739Z,47.80
2018-02-18T18:24:38.620Z,47.80
2018-02-18T18:27:06.588Z,53.73
2018-02-18T18:29:34.460Z,53.23
2018-02-18T18:32:02.336Z,67.90
2018-02-18T18:34:30.317Z,57.27
2018-02-18T18:36:57.876Z,66.40
2018-02-18T18:39:25.754Z,48.57
2018-02-18T18:41:53.243Z,46.73
2018-02-18T18:44:20.727Z,49.60
2018-02-18T18:46:48.186Z,47.87
2018-02-18T18:49:15.688Z,47.77
2018-02-18T18:51:43.559Z,59.67
2018-02-18T18:54:11.431Z,48.23
2018-02-18T18:56:39.315Z,48.63
2018-02-18T18:59:06.811Z,49.40
2018-02-18T19:01:34.299Z,60.07
2018-02-18T19:04:01.782Z,49.10
2018-02-18T19:06:29.656Z,46.67
2018-02-18T19:08:57.521Z,54.47
2018-02-18T19:11:25.417Z,50.03
2018-02-18T19:13:52.884Z,46.03
2018-02-18T19:16:20.409Z,58.03
2018-02-18T19:18:47.909Z,54.20
2018-02-18T19:21:15.375Z,46.83
2018-02-18T19:23:42.877Z,53.80
2018-02-18T19:26:10.343Z,53.90
2018-02-18T19:28:37.901Z,53.27
2018-02-18T19:31:05.388Z,58.17
2018-02-18T19:33:33.369Z,51.93
2018-02-18T19:36:01.414Z,50.17
2018-02-18T19:38:28.881Z,51.30
2018-02-18T19:40:56.445Z,52.43
2018-02-18T19:43:23.961Z,56.87
2018-02-18T19:45:51.470Z,53.20
2018-02-18T19:48:18.925Z,53.97
2018-02-18T19:50:46.435Z,56.73
2018-02-18T19:53:14.311Z,59.53
2018-02-18T19:55:42.268Z,49.10
2018-02-18T19:58:10.167Z,42.63
2018-02-18T20:00:37.682Z,49.87
2018-02-18T20:03:05.281Z,50.73
2018-02-18T20:05:34.253Z,49.07
2018-02-18T20:08:02.405Z,51.80
2018-02-18T20:10:29.895Z,54.63
2018-02-18T20:12:57.874Z,48.90
2018-02-18T20:15:25.822Z,48.13
2018-02-18T20:17:53.300Z,47.43
2018-02-18T20:20:20.790Z,46.90
2018-02-18T20:22:48.275Z,41.00
2018-02-18T20:25:15.749Z,51.20
2018-02-18T20:27:43.255Z,49.90
2018-02-18T20:30:11.115Z,41.30
2018-02-18T20:32:38.625Z,43.60
2018-02-18T20:35:06.092Z,44.33
2018-02-18T20:37:33.593Z,47.27
2018-02-18T20:40:01.077Z,49.47
2018-02-18T20:42:28.543Z,46.23
2018-02-18T20:44:56.434Z,46.80
2018-02-18T20:47:23.924Z,47.13
2018-02-18T20:49:51.527Z,48.87
2018-02-18T20:52:19.102Z,41.00
2018-02-18T20:54:46.968Z,44.43
2018-02-18T20:57:14.746Z,43.33
2018-02-18T20:59:42.641Z,41.70
2018-02-18T21:02:10.143Z,45.63
2018-02-18T21:04:37.625Z,39.47
2018-02-18T21:07:05.499Z,41.20
2018-02-18T21:09:33.001Z,44.30
2018-02-18T21:12:00.492Z,47.30
2018-02-18T21:14:27.975Z,42.50
2018-02-18T21:16:55.444Z,41.57
2018-02-18T21:19:23.273Z,42.87
2018-02-18T21:21:50.742Z,44.87
2018-02-18T21:24:18.239Z,43.57
2018-02-18T21:26:45.740Z,48.17
2018-02-18T21:29:13.253Z,46.83
2018-02-18T21:31:40.743Z,41.53
2018-02-18T21:34:08.754Z,47.13
2018-02-18T21:36:36.279Z,39.83
2018-02-18T21:39:04.160Z,39.40
2018-02-18T21:41:32.789Z,46.17
2018-02-18T21:44:00.293Z,43.60
2018-02-18T21:46:28.244Z,48.37
2018-02-18T21:48:55.740Z,43.17
2018-02-18T21:51:24.341Z,38.67
2018-02-18T21:53:52.128Z,44.10
2018-02-18T21:56:19.788Z,45.97
2018-02-18T21:58:47.350Z,48.83
2018-02-18T22:01:14.865Z,46.37
2018-02-18T22:03:42.494Z,55.80
2018-02-18T22:06:10.056Z,48.40
2018-02-18T22:08:37.592Z,43.57
2018-02-18T22:11:05.474Z,43.47
2018-02-18T22:13:33.000Z,47.97
2018-02-18T22:16:00.545Z,44.20
2018-02-18T22:18:28.071Z,43.60
2018-02-18T22:20:55.553Z,46.47
2018-02-18T22:23:23.021Z,47.63
2018-02-18T22:25:50.540Z,41.43
2018-02-18T22:28:18.425Z,45.07
2018-02-18T22:30:45.933Z,40.57
2018-02-18T22:33:13.433Z,41.27
2018-02-18T22:35:41.329Z,45.87
2018-02-18T22:38:08.814Z,40.97
2018-02-18T22:40:36.311Z,44.57
2018-02-18T22:43:03.904Z,49.80
2018-02-18T22:45:31.472Z,48.40
2018-02-18T22:47:59.048Z,51.73
2018-02-18T22:50:26.562Z,46.40
2018-02-18T22:52:54.169Z,43.47
2018-02-18T22:55:22.034Z,45.47
2018-02-18T22:57:49.583Z,46.10
2018-02-18T23:00:18.077Z,53.10
2018-02-18T23:02:45.953Z,56.43
2018-02-18T23:05:19.263Z,44.90
2018-02-18T23:07:46.817Z,46.47
2018-02-18T23:10:14.334Z,40.43
2018-02-18T23:12:41.847Z,41.30
2018-02-18T23:15:09.382Z,45.70
2018-02-18T23:17:37.280Z,45.57
2018-02-18T23:20:04.792Z,41.37
2018-02-18T23:22:32.305Z,42.20
2018-02-18T23:24:59.872Z,46.67
2018-02-18T23:27:27.357Z,44.40
2018-02-18T23:29:54.959Z,44.57
2018-02-18T23:32:22.499Z,45.07
2018-02-18T23:34:49.977Z,44.00
2018-02-18T23:37:17.469Z,50.37
2018-02-18T23:39:45.550Z,44.37
2018-02-18T23:42:13.048Z,39.20
2018-02-18T23:44:40.539Z,46.83
2018-02-18T23:47:08.060Z,44.20
2018-02-18T23:49:35.554Z,42.93
2018-02-18T23:52:03.095Z,48.00
2018-02-18T23:54:30.566Z,49.70
2018-02-18T23:56:58.159Z,42.93
2018-02-18T23:59:25.640Z,41.50
